Time;durP1;ratioP1;P1;durP2;ratioP2;P2;SDS_P1;SDS_P2;PMS_P1;PMS_P2;Temp;Humidity;BMP_temperature;BMP_pressure;BME280_temperature;BME280_humidity;BME280_pressure;Samples;Min_cycle;Max_cycle;Signal;HPM_P1;HPM_P2
2022/08/21 00:01:16;;;;;;;149.20;67.40;;;;;;;;;;4975183;28;20023;-76
2022/08/21 00:03:42;;;;;;;235.98;72.65;;;;;;;;;;4978362;28;20030;-75
2022/08/21 00:06:08;;;;;;;240.60;80.38;;;;;;;;;;4973071;28;20459;-75
2022/08/21 00:08:34;;;;;;;258.60;87.43;;;;;;;;;;4972213;28;20367;-76
2022/08/21 00:11:00;;;;;;;534.22;120.03;;;;;;;;;;4975275;28;20038;-78
2022/08/21 00:13:26;;;;;;;475.00;117.32;;;;;;;;;;4974399;28;20033;-77
2022/08/21 00:15:52;;;;;;;465.75;121.25;;;;;;;;;;4973645;28;20399;-76
2022/08/21 00:18:19;;;;;;;282.40;98.45;;;;;;;;;;4973795;28;20027;-76
2022/08/21 00:20:45;;;;;;;561.25;128.95;;;;;;;;;;4973166;28;20023;-76
2022/08/21 00:23:11;;;;;;;391.02;112.85;;;;;;;;;;4974851;28;20027;-77
2022/08/21 00:25:38;;;;;;;574.13;134.18;;;;;;;;;;4971620;28;20077;-76
2022/08/21 00:28:06;;;;;;;631.00;136.73;;;;;;;;;;4972904;28;20083;-76
2022/08/21 00:30:32;;;;;;;413.10;116.00;;;;;;;;;;4972743;28;20022;-76
2022/08/21 00:32:59;;;;;;;517.58;116.35;;;;;;;;;;4973162;28;20392;-76
2022/08/21 00:35:27;;;;;;;478.25;120.93;;;;;;;;;;4973073;28;20488;-74
2022/08/21 00:37:53;;;;;;;530.13;122.60;;;;;;;;;;4973037;28;20378;-76
2022/08/21 00:40:21;;;;;;;565.58;124.68;;;;;;;;;;4971645;28;20400;-75
2022/08/21 00:42:47;;;;;;;495.98;127.07;;;;;;;;;;4972683;28;20575;-76
2022/08/21 00:45:13;;;;;;;408.88;114.53;;;;;;;;;;4971613;28;20027;-75
2022/08/21 00:47:39;;;;;;;868.15;261.48;;;;;;;;;;4971277;28;20031;-75
2022/08/21 00:50:07;;;;;;;1494.03;495.80;;;;;;;;;;4971900;28;20034;-75
2022/08/21 00:52:34;;;;;;;548.60;198.63;;;;;;;;;;4972526;28;20051;-75
2022/08/21 00:55:00;;;;;;;528.92;165.38;;;;;;;;;;4972244;28;20101;-75
2022/08/21 00:57:29;;;;;;;621.05;153.55;;;;;;;;;;4973317;28;20030;-75
2022/08/21 00:59:57;;;;;;;551.60;153.05;;;;;;;;;;4973993;28;20113;-76
2022/08/21 01:02:23;;;;;;;439.23;116.00;;;;;;;;;;4972114;28;20478;-75
2022/08/21 01:04:49;;;;;;;486.05;121.13;;;;;;;;;;4973584;28;20122;-75
2022/08/21 01:07:16;;;;;;;336.30;102.88;;;;;;;;;;4972682;28;20101;-75
2022/08/21 01:09:42;;;;;;;548.47;133.48;;;;;;;;;;4973930;28;20077;-75
2022/08/21 01:12:09;;;;;;;395.48;119.25;;;;;;;;;;4974037;28;20026;-75
2022/08/21 01:14:35;;;;;;;481.50;123.65;;;;;;;;;;4973890;28;20564;-75
2022/08/21 01:17:03;;;;;;;482.17;128.38;;;;;;;;;;4974002;28;20038;-74
2022/08/21 01:19:29;;;;;;;554.88;133.48;;;;;;;;;;4973686;28;20034;-75
2022/08/21 01:21:55;;;;;;;365.00;111.20;;;;;;;;;;4972667;28;20521;-75
2022/08/21 01:24:21;;;;;;;341.42;106.05;;;;;;;;;;4973061;28;20101;-75
2022/08/21 01:26:48;;;;;;;351.02;105.18;;;;;;;;;;4972461;28;20118;-75
2022/08/21 01:29:27;;;;;;;204.35;85.03;;;;;;;;;;4972218;28;20110;-76
2022/08/21 01:31:53;;;;;;;308.65;92.78;;;;;;;;;;4975118;28;20084;-75
2022/08/21 01:34:19;;;;;;;212.15;76.15;;;;;;;;;;4976062;28;20104;-76
2022/08/21 01:36:45;;;;;;;188.23;65.00;;;;;;;;;;4976905;28;20481;-74
2022/08/21 01:39:12;;;;;;;120.13;50.08;;;;;;;;;;4975687;28;20034;-75
2022/08/21 01:41:38;;;;;;;153.73;54.83;;;;;;;;;;4976148;28;20045;-74
2022/08/21 01:44:04;;;;;;;219.93;64.07;;;;;;;;;;4975884;28;20031;-75
2022/08/21 01:46:30;;;;;;;203.15;63.25;;;;;;;;;;4975974;28;20027;-75
2022/08/21 01:48:56;;;;;;;235.65;62.05;;;;;;;;;;4975329;28;20096;-75
2022/08/21 01:51:22;;;;;;;315.42;72.25;;;;;;;;;;4975737;28;20041;-74
2022/08/21 01:53:48;;;;;;;218.07;61.95;;;;;;;;;;4975165;28;20027;-76
2022/08/21 01:56:15;;;;;;;154.48;51.17;;;;;;;;;;4975740;28;20122;-74
2022/08/21 01:58:42;;;;;;;175.35;55.53;;;;;;;;;;4975322;28;20031;-75
2022/08/21 02:01:09;;;;;;;225.45;63.45;;;;;;;;;;4973965;28;20034;-75
2022/08/21 02:03:35;;;;;;;226.45;62.58;;;;;;;;;;4974105;28;20038;-75
2022/08/21 02:06:01;;;;;;;194.30;59.45;;;;;;;;;;4975359;28;20027;-76
2022/08/21 02:08:28;;;;;;;254.65;62.97;;;;;;;;;;4975195;28;20030;-75
2022/08/21 02:10:54;;;;;;;209.95;59.00;;;;;;;;;;4975055;28;20482;-75
2022/08/21 02:13:21;;;;;;;145.70;48.15;;;;;;;;;;4974217;28;20092;-76
2022/08/21 02:15:47;;;;;;;211.90;58.47;;;;;;;;;;4975510;28;20471;-76
2022/08/21 02:18:13;;;;;;;165.40;51.55;;;;;;;;;;4975310;28;20023;-76
2022/08/21 02:20:41;;;;;;;220.73;57.63;;;;;;;;;;4975516;28;20476;-75
2022/08/21 02:23:08;;;;;;;188.70;54.70;;;;;;;;;;4975316;28;20107;-75
2022/08/21 02:25:34;;;;;;;137.13;48.63;;;;;;;;;;4973712;28;20047;-75
2022/08/21 02:28:03;;;;;;;107.50;40.88;;;;;;;;;;4974938;28;20026;-75
2022/08/21 02:30:31;;;;;;;128.18;47.17;;;;;;;;;;4974564;28;20023;-75
2022/08/21 02:32:57;;;;;;;181.30;51.38;;;;;;;;;;4974804;28;20030;-76
2022/08/21 02:35:24;;;;;;;216.85;54.22;;;;;;;;;;4973792;28;20612;-75
2022/08/21 02:37:55;;;;;;;101.20;38.83;;;;;;;;;;4974994;28;20062;-76
2022/08/21 02:40:23;;;;;;;169.55;50.00;;;;;;;;;;4979106;28;20027;-76
2022/08/21 02:42:49;;;;;;;147.75;47.92;;;;;;;;;;4977984;28;20493;-75
2022/08/21 02:45:17;;;;;;;182.98;54.92;;;;;;;;;;4985354;28;20051;-74
2022/08/21 02:47:53;;;;;;;86.93;41.63;;;;;;;;;;4983958;28;20117;-75
2022/08/21 02:50:37;;;;;;;126.57;47.38;;;;;;;;;;4979279;28;20034;-75
2022/08/21 02:53:03;;;;;;;167.50;48.78;;;;;;;;;;4962847;28;20042;-75
2022/08/21 02:55:30;;;;;;;149.60;51.63;;;;;;;;;;4974554;28;20038;-75
2022/08/21 02:57:57;;;;;;;149.32;47.53;;;;;;;;;;4974244;28;20572;-75
2022/08/21 03:00:25;;;;;;;148.02;50.88;;;;;;;;;;4974580;28;20037;-76
2022/08/21 03:02:51;;;;;;;167.55;51.22;;;;;;;;;;4973409;28;20019;-76
2022/08/21 03:05:18;;;;;;;123.65;48.13;;;;;;;;;;4973420;28;20501;-77
2022/08/21 03:07:46;;;;;;;154.95;49.85;;;;;;;;;;4974308;28;20490;-76
2022/08/21 03:10:12;;;;;;;161.82;50.20;;;;;;;;;;4974523;28;20037;-74
2022/08/21 03:12:38;;;;;;;141.65;50.10;;;;;;;;;;4972829;28;20139;-75
2022/08/21 03:15:04;;;;;;;122.07;45.65;;;;;;;;;;4974394;28;20080;-76
2022/08/21 03:17:33;;;;;;;131.32;47.97;;;;;;;;;;4973795;28;20077;-74
2022/08/21 03:19:59;;;;;;;156.82;52.35;;;;;;;;;;4974328;28;20027;-75
2022/08/21 03:22:26;;;;;;;123.00;48.28;;;;;;;;;;4972733;28;20437;-75
2022/08/21 03:24:53;;;;;;;130.32;48.67;;;;;;;;;;4974189;28;20155;-75
2022/08/21 03:27:19;;;;;;;112.38;42.75;;;;;;;;;;4973744;28;20042;-75
2022/08/21 03:29:45;;;;;;;170.35;51.83;;;;;;;;;;4974047;28;20023;-76
2022/08/21 03:32:11;;;;;;;81.78;39.47;;;;;;;;;;4973684;28;20037;-76
2022/08/21 03:34:38;;;;;;;162.50;54.40;;;;;;;;;;5009685;23;20042;-76
2022/08/21 03:37:04;;;;;;;115.43;47.22;;;;;;;;;;4992380;28;20027;-76
2022/08/21 03:39:30;;;;;;;152.90;50.72;;;;;;;;;;4992812;28;20046;-76
2022/08/21 03:41:56;;;;;;;162.90;50.67;;;;;;;;;;4993404;28;20062;-76
2022/08/21 03:44:22;;;;;;;152.73;52.70;;;;;;;;;;4991413;28;20415;-76
2022/08/21 03:46:48;;;;;;;100.30;42.17;;;;;;;;;;4993541;28;20026;-76
2022/08/21 03:49:15;;;;;;;236.15;63.45;;;;;;;;;;4992783;28;20058;-76
2022/08/21 03:51:41;;;;;;;157.95;51.53;;;;;;;;;;4992983;28;20027;-76
2022/08/21 03:54:07;;;;;;;232.30;61.40;;;;;;;;;;4991249;28;20027;-75
2022/08/21 03:56:32;;;;;;;174.43;53.25;;;;;;;;;;4992665;28;20057;-76
2022/08/21 03:58:59;;;;;;;166.88;55.40;;;;;;;;;;4992043;28;20404;-75
2022/08/21 04:01:25;;;;;;;177.98;62.42;;;;;;;;;;4991342;28;20069;-75
2022/08/21 04:03:51;;;;;;;1999.90;742.33;;;;;;;;;;4992336;28;20062;-76
2022/08/21 04:06:17;;;;;;;1999.90;844.78;;;;;;;;;;4991254;28;20065;-76
2022/08/21 04:08:43;;;;;;;1141.35;411.50;;;;;;;;;;4992193;28;20034;-75
2022/08/21 04:11:13;;;;;;;763.13;194.27;;;;;;;;;;4991755;28;20077;-75
2022/08/21 04:13:40;;;;;;;311.95;81.43;;;;;;;;;;4991115;28;20081;-76
2022/08/21 04:16:06;;;;;;;209.82;65.05;;;;;;;;;;4992357;28;20037;-76
2022/08/21 04:18:32;;;;;;;224.40;67.97;;;;;;;;;;4991954;28;20019;-76
2022/08/21 04:21:00;;;;;;;202.70;61.45;;;;;;;;;;4992162;28;20022;-76
2022/08/21 04:23:26;;;;;;;166.27;57.38;;;;;;;;;;4992124;28;20421;-77
2022/08/21 04:25:53;;;;;;;673.58;188.82;;;;;;;;;;4991867;28;20030;-76
2022/08/21 04:28:19;;;;;;;309.17;83.30;;;;;;;;;;4990338;28;20029;-76
2022/08/21 04:30:45;;;;;;;1167.57;330.92;;;;;;;;;;4991739;28;20030;-75
2022/08/21 04:33:11;;;;;;;634.92;163.93;;;;;;;;;;4992215;28;20492;-75
2022/08/21 04:35:37;;;;;;;819.03;235.00;;;;;;;;;;4990489;28;20072;-76
2022/08/21 04:38:03;;;;;;;329.75;98.45;;;;;;;;;;4991829;28;20015;-76
2022/08/21 04:40:29;;;;;;;425.65;119.47;;;;;;;;;;4991663;28;20046;-75
2022/08/21 04:43:00;;;;;;;319.17;82.10;;;;;;;;;;4991842;28;20035;-77
2022/08/21 04:45:31;;;;;;;275.27;81.38;;;;;;;;;;4991813;28;20057;-76
2022/08/21 04:47:59;;;;;;;244.63;72.65;;;;;;;;;;4990452;28;20035;-76
2022/08/21 04:50:28;;;;;;;247.23;71.97;;;;;;;;;;4991932;28;20030;-76
2022/08/21 04:52:54;;;;;;;145.80;56.08;;;;;;;;;;4991493;28;20050;-76
2022/08/21 04:55:20;;;;;;;294.55;70.75;;;;;;;;;;4991561;28;20023;-76
2022/08/21 04:57:46;;;;;;;288.25;75.97;;;;;;;;;;4989851;28;20027;-76
2022/08/21 05:00:13;;;;;;;247.55;71.43;;;;;;;;;;4990288;28;20027;-76
2022/08/21 05:02:40;;;;;;;291.35;76.78;;;;;;;;;;4991526;28;20080;-76
2022/08/21 05:05:07;;;;;;;343.98;84.38;;;;;;;;;;4991620;28;20110;-76
2022/08/21 05:07:34;;;;;;;221.02;68.82;;;;;;;;;;4995087;28;20026;-76
2022/08/21 05:10:01;;;;;;;314.33;80.15;;;;;;;;;;4995619;28;20030;-76
2022/08/21 05:12:27;;;;;;;273.27;78.65;;;;;;;;;;4993847;28;20122;-76
2022/08/21 05:14:53;;;;;;;292.13;79.05;;;;;;;;;;4995629;28;20026;-76
2022/08/21 05:17:19;;;;;;;261.13;73.82;;;;;;;;;;4994917;28;20057;-77
2022/08/21 05:19:45;;;;;;;299.42;78.82;;;;;;;;;;4995401;28;20037;-76
2022/08/21 05:22:11;;;;;;;272.17;70.28;;;;;;;;;;4995004;28;20565;-76
2022/08/21 05:24:38;;;;;;;273.48;79.95;;;;;;;;;;4995627;28;20026;-76
2022/08/21 05:27:04;;;;;;;279.98;76.68;;;;;;;;;;4995391;28;20114;-76
2022/08/21 05:29:31;;;;;;;305.92;84.63;;;;;;;;;;4995148;28;20030;-77
2022/08/21 05:31:57;;;;;;;274.20;77.82;;;;;;;;;;4995581;28;20373;-76
2022/08/21 05:34:24;;;;;;;322.42;82.38;;;;;;;;;;4995036;28;20041;-76
2022/08/21 05:36:50;;;;;;;277.02;79.38;;;;;;;;;;4995067;28;20023;-76
2022/08/21 05:39:16;;;;;;;221.70;69.15;;;;;;;;;;4993394;28;20033;-76
2022/08/21 05:41:42;;;;;;;261.40;73.53;;;;;;;;;;4994299;28;20112;-76
2022/08/21 05:44:08;;;;;;;312.92;86.28;;;;;;;;;;4994968;28;20022;-76
2022/08/21 05:46:34;;;;;;;345.73;82.40;;;;;;;;;;4995257;28;20026;-77
2022/08/21 05:49:00;;;;;;;248.40;75.53;;;;;;;;;;4994669;28;20030;-76
2022/08/21 05:51:26;;;;;;;315.38;84.45;;;;;;;;;;4994775;28;20033;-77
2022/08/21 05:53:52;;;;;;;336.00;87.15;;;;;;;;;;4993342;28;20113;-75
2022/08/21 05:56:18;;;;;;;409.85;94.80;;;;;;;;;;4994874;28;20010;-75
2022/08/21 05:58:44;;;;;;;319.13;88.30;;;;;;;;;;4994620;28;20023;-76
2022/08/21 06:01:10;;;;;;;287.40;81.55;;;;;;;;;;4993161;28;20027;-77
2022/08/21 06:03:41;;;;;;;346.05;92.70;;;;;;;;;;4995029;28;20444;-76
2022/08/21 06:06:07;;;;;;;304.48;85.40;;;;;;;;;;4994698;28;20073;-76
2022/08/21 06:08:33;;;;;;;215.57;75.50;;;;;;;;;;4994404;28;20081;-76
2022/08/21 06:11:00;;;;;;;354.30;94.68;;;;;;;;;;4994337;28;20106;-76
2022/08/21 06:13:27;;;;;;;152.60;67.70;;;;;;;;;;4994544;28;20118;-76
2022/08/21 06:16:03;;;;;;;241.60;77.78;;;;;;;;;;4994332;28;20488;-76
2022/08/21 06:18:29;;;;;;;236.88;77.72;;;;;;;;;;4993035;28;20077;-77
2022/08/21 06:20:55;;;;;;;229.13;79.68;;;;;;;;;;4994115;28;20022;-76
2022/08/21 06:23:21;;;;;;;326.10;89.35;;;;;;;;;;4994277;28;20520;-77
2022/08/21 06:25:47;;;;;;;299.35;86.15;;;;;;;;;;4992813;28;20018;-77
2022/08/21 06:28:13;;;;;;;190.77;71.50;;;;;;;;;;4993885;28;20484;-76
2022/08/21 06:30:39;;;;;;;246.35;77.10;;;;;;;;;;4992500;28;20029;-76
2022/08/21 06:33:06;;;;;;;305.00;87.07;;;;;;;;;;4993913;28;20026;-77
2022/08/21 06:35:33;;;;;;;176.60;74.80;;;;;;;;;;4994280;28;20022;-76
2022/08/21 06:37:59;;;;;;;222.38;75.93;;;;;;;;;;4994030;28;20093;-77
2022/08/21 06:40:25;;;;;;;297.05;86.63;;;;;;;;;;4994023;28;20023;-76
2022/08/21 06:42:51;;;;;;;217.88;75.05;;;;;;;;;;4994016;28;20038;-77
2022/08/21 06:45:17;;;;;;;284.77;84.32;;;;;;;;;;4992779;28;20077;-77
2022/08/21 06:47:43;;;;;;;176.38;75.18;;;;;;;;;;4993513;28;20037;-77
2022/08/21 06:50:09;;;;;;;247.15;78.97;;;;;;;;;;4992647;28;20026;-77
2022/08/21 06:52:36;;;;;;;204.10;70.10;;;;;;;;;;4993467;28;20022;-77
2022/08/21 06:55:04;;;;;;;323.67;83.32;;;;;;;;;;4994466;28;20029;-78
2022/08/21 06:57:30;;;;;;;169.73;65.10;;;;;;;;;;4994270;28;20023;-77
2022/08/21 06:59:56;;;;;;;198.40;75.65;;;;;;;;;;4994693;28;20496;-77
2022/08/21 07:02:22;;;;;;;473.55;94.60;;;;;;;;;;4994847;28;20046;-77
2022/08/21 07:04:48;;;;;;;307.70;78.47;;;;;;;;;;4994904;28;20026;-77
2022/08/21 07:07:14;;;;;;;199.85;68.05;;;;;;;;;;4993167;28;20032;-77
2022/08/21 07:09:40;;;;;;;168.77;60.42;;;;;;;;;;4993616;28;20391;-77
2022/08/21 07:12:06;;;;;;;191.27;72.18;;;;;;;;;;4993319;28;20030;-77
2022/08/21 07:14:32;;;;;;;209.98;70.55;;;;;;;;;;4980803;28;20032;-77
2022/08/21 07:16:58;;;;;;;213.30;74.35;;;;;;;;;;4993443;28;20030;-77
2022/08/21 07:19:24;;;;;;;163.27;71.10;;;;;;;;;;4993260;28;20575;-77
2022/08/21 07:21:50;;;;;;;181.52;70.13;;;;;;;;;;4993456;28;20053;-76
2022/08/21 07:24:16;;;;;;;111.07;55.72;;;;;;;;;;4991727;28;20392;-76
2022/08/21 07:26:42;;;;;;;111.93;56.25;;;;;;;;;;4993610;28;20034;-76
2022/08/21 07:29:08;;;;;;;147.60;64.57;;;;;;;;;;4992958;28;20026;-77
2022/08/21 07:31:34;;;;;;;159.88;66.78;;;;;;;;;;4993007;28;20116;-77
2022/08/21 07:34:01;;;;;;;1627.18;571.53;;;;;;;;;;4992767;28;20448;-77
2022/08/21 07:36:27;;;;;;;447.45;131.50;;;;;;;;;;4991841;28;20104;-77
2022/08/21 07:38:53;;;;;;;333.42;124.80;;;;;;;;;;4991216;28;20029;-77
2022/08/21 07:41:21;;;;;;;132.02;63.80;;;;;;;;;;4992862;28;20030;-77
2022/08/21 07:43:47;;;;;;;140.38;61.17;;;;;;;;;;4991434;28;20048;-76
2022/08/21 07:46:14;;;;;;;53.58;36.33;;;;;;;;;;4992993;28;20513;-77
2022/08/21 07:48:40;;;;;;;98.03;47.80;;;;;;;;;;4991571;28;20030;-77
2022/08/21 07:51:08;;;;;;;63.63;40.30;;;;;;;;;;4992663;28;20148;-77
2022/08/21 07:53:34;;;;;;;70.45;44.83;;;;;;;;;;4992823;28;20105;-76
2022/08/21 07:56:01;;;;;;;49.72;35.25;;;;;;;;;;4992686;28;20022;-77
2022/08/21 07:58:27;;;;;;;69.38;40.20;;;;;;;;;;4992552;28;20033;-77
2022/08/21 08:00:53;;;;;;;76.68;46.15;;;;;;;;;;4992635;28;20465;-77
2022/08/21 08:03:19;;;;;;;43.55;33.13;;;;;;;;;;4992785;28;20030;-77
2022/08/21 08:05:45;;;;;;;53.08;38.30;;;;;;;;;;4992328;28;20488;-76
2022/08/21 08:08:11;;;;;;;63.33;40.92;;;;;;;;;;4992425;28;20023;-77
2022/08/21 08:10:37;;;;;;;41.20;33.63;;;;;;;;;;4992497;28;20397;-77
2022/08/21 08:13:03;;;;;;;32.58;29.17;;;;;;;;;;4992267;28;20030;-77
2022/08/21 08:15:29;;;;;;;40.42;33.05;;;;;;;;;;4991998;28;20370;-76
2022/08/21 08:17:56;;;;;;;46.15;33.67;;;;;;;;;;4991835;28;20034;-77
2022/08/21 08:20:22;;;;;;;47.00;34.70;;;;;;;;;;4992301;28;20030;-76
2022/08/21 08:22:49;;;;;;;79.53;51.13;;;;;;;;;;4991975;28;20033;-76
2022/08/21 08:25:16;;;;;;;48.28;37.45;;;;;;;;;;4992106;28;20029;-76
2022/08/21 08:27:42;;;;;;;46.95;35.90;;;;;;;;;;4992078;28;20436;-77
2022/08/21 08:30:10;;;;;;;41.97;33.83;;;;;;;;;;4991739;28;20451;-76
2022/08/21 08:32:36;;;;;;;33.67;30.05;;;;;;;;;;4991819;28;20073;-77
2022/08/21 08:35:02;;;;;;;33.20;28.08;;;;;;;;;;4991860;28;20543;-76
2022/08/21 08:37:28;;;;;;;27.27;24.30;;;;;;;;;;4991679;28;20015;-76
2022/08/21 08:39:54;;;;;;;25.67;22.92;;;;;;;;;;4991696;28;20081;-76
2022/08/21 08:42:34;;;;;;;23.95;21.55;;;;;;;;;;4991407;28;20096;-75
2022/08/21 08:45:13;;;;;;;20.85;18.77;;;;;;;;;;4991849;28;20026;-76
2022/08/21 08:47:40;;;;;;;27.90;21.30;;;;;;;;;;4991494;28;20026;-76
2022/08/21 08:50:10;;;;;;;19.77;17.77;;;;;;;;;;4991864;28;20029;-76
2022/08/21 08:52:42;;;;;;;19.48;17.45;;;;;;;;;;4991378;28;20038;-75
2022/08/21 08:55:09;;;;;;;19.70;16.20;;;;;;;;;;4991070;28;20030;-76
2022/08/21 08:57:36;;;;;;;25.00;20.67;;;;;;;;;;4991479;28;20027;-76
2022/08/21 09:00:06;;;;;;;208.93;132.73;;;;;;;;;;4992027;28;20027;-76
2022/08/21 09:02:33;;;;;;;75.93;45.28;;;;;;;;;;4991628;28;20111;-76
2022/08/21 09:04:59;;;;;;;80.15;47.92;;;;;;;;;;4991784;28;20637;-76
2022/08/21 09:07:33;;;;;;;14.85;11.35;;;;;;;;;;4991094;28;20110;-77
2022/08/21 09:10:06;;;;;;;18.25;13.35;;;;;;;;;;4991984;28;20061;-76
2022/08/21 09:12:47;;;;;;;13.48;10.38;;;;;;;;;;4991138;28;20077;-77
2022/08/21 09:15:22;;;;;;;36.55;25.35;;;;;;;;;;4991653;28;20067;-76
2022/08/21 09:17:56;;;;;;;545.85;387.08;;;;;;;;;;4989871;28;20034;-76
2022/08/21 09:20:22;;;;;;;21.27;14.75;;;;;;;;;;4991554;28;20506;-77
2022/08/21 09:22:49;;;;;;;10.32;8.55;;;;;;;;;;4991395;28;20109;-77
2022/08/21 09:25:24;;;;;;;9.65;7.45;;;;;;;;;;4990186;28;20126;-76
2022/08/21 09:27:50;;;;;;;11.73;9.07;;;;;;;;;;4989692;28;20026;-76
2022/08/21 09:30:16;;;;;;;10.85;7.95;;;;;;;;;;4991447;28;20022;-77
2022/08/21 09:32:42;;;;;;;8.85;7.95;;;;;;;;;;4991208;28;20085;-77
2022/08/21 09:35:22;;;;;;;9.98;7.30;;;;;;;;;;5015241;23;20082;-78
2022/08/21 09:37:52;;;;;;;9.20;6.15;;;;;;;;;;4991722;28;20106;-76
2022/08/21 09:40:39;;;;;;;6.75;5.32;;;;;;;;;;4992098;28;20023;-76
2022/08/21 09:43:05;;;;;;;8.75;4.90;;;;;;;;;;4979987;28;20054;-76
2022/08/21 09:45:32;;;;;;;10.20;5.65;;;;;;;;;;4991422;28;20038;-76
2022/08/21 09:48:10;;;;;;;11.20;5.13;;;;;;;;;;4991967;28;20467;-78
2022/08/21 09:50:36;;;;;;;9.77;5.03;;;;;;;;;;4991628;28;20026;-77
2022/08/21 09:53:03;;;;;;;7.00;4.28;;;;;;;;;;4994086;28;20153;-76
2022/08/21 09:58:20;;;;;;;6.38;4.70;;;;;;;;;;4995126;28;20142;-77
2022/08/21 10:00:56;;;;;;;7.60;4.72;;;;;;;;;;4994748;28;20033;-76
2022/08/21 10:03:24;;;;;;;6.72;4.15;;;;;;;;;;4994872;28;20034;-76
2022/08/21 10:06:01;;;;;;;7.28;4.25;;;;;;;;;;4994613;28;20397;-76
2022/08/21 10:08:29;;;;;;;7.10;4.63;;;;;;;;;;4994878;28;20503;-76
2022/08/21 10:11:02;;;;;;;5.45;3.70;;;;;;;;;;4993409;28;20022;-77
2022/08/21 10:13:50;;;;;;;6.97;3.58;;;;;;;;;;4994765;28;20100;-77
2022/08/21 10:16:23;;;;;;;7.15;3.88;;;;;;;;;;4995920;28;20103;-76
2022/08/21 10:18:58;;;;;;;7.20;4.25;;;;;;;;;;4995959;28;20023;-76
2022/08/21 10:21:50;;;;;;;14.23;6.47;;;;;;;;;;4995271;28;20061;-77
2022/08/21 10:24:23;;;;;;;8.52;4.18;;;;;;;;;;4963643;28;20034;-77
2022/08/21 10:27:08;;;;;;;11.48;5.18;;;;;;;;;;4994719;28;20023;-78
2022/08/21 10:29:56;;;;;;;6.50;4.03;;;;;;;;;;4985514;28;20353;-77
2022/08/21 10:32:25;;;;;;;7.25;3.83;;;;;;;;;;4994300;28;20045;-77
2022/08/21 10:34:54;;;;;;;6.82;4.35;;;;;;;;;;4994071;28;20080;-76
2022/08/21 10:37:29;;;;;;;8.60;3.85;;;;;;;;;;4993720;28;20023;-77
2022/08/21 10:39:58;;;;;;;6.75;4.22;;;;;;;;;;4994555;28;20105;-77
2022/08/21 10:42:24;;;;;;;8.55;3.60;;;;;;;;;;4994161;28;20523;-76
2022/08/21 10:44:57;;;;;;;10.48;4.00;;;;;;;;;;4994218;28;20034;-78
2022/08/21 10:47:34;;;;;;;25.35;13.40;;;;;;;;;;4992754;28;20035;-78
2022/08/21 10:50:19;;;;;;;9.50;6.28;;;;;;;;;;4994455;28;20030;-76
2022/08/21 10:52:53;;;;;;;9.32;5.75;;;;;;;;;;4993484;28;20057;-77
2022/08/21 10:55:27;;;;;;;35.85;14.65;;;;;;;;;;4994330;28;20506;-75
2022/08/21 10:58:03;;;;;;;15.18;6.47;;;;;;;;;;4992840;28;20018;-76
2022/08/21 11:00:41;;;;;;;11.10;5.15;;;;;;;;;;4994258;28;20018;-75
2022/08/21 11:03:10;;;;;;;7.20;3.45;;;;;;;;;;4992256;28;20033;-76
2022/08/21 11:05:42;;;;;;;7.82;3.22;;;;;;;;;;4993478;28;20065;-75
2022/08/21 11:08:12;;;;;;;7.72;3.45;;;;;;;;;;4993807;28;20022;-76
2022/08/21 11:10:47;;;;;;;5.68;3.10;;;;;;;;;;4992468;28;20023;-76
2022/08/21 11:13:32;;;;;;;8.95;3.00;;;;;;;;;;4993833;28;20122;-76
2022/08/21 11:16:16;;;;;;;44.22;28.33;;;;;;;;;;4993245;28;20048;-74
2022/08/21 11:18:47;;;;;;;141.88;88.85;;;;;;;;;;4993558;28;20035;-77
2022/08/21 11:21:22;;;;;;;18.10;7.53;;;;;;;;;;4994217;28;20011;-78
2022/08/21 11:23:55;;;;;;;63.88;32.83;;;;;;;;;;4991998;28;20023;-77
2022/08/21 11:26:31;;;;;;;14.00;8.02;;;;;;;;;;4992155;28;20449;-76
2022/08/21 11:29:02;;;;;;;8.25;2.63;;;;;;;;;;4993002;28;20064;-76
2022/08/21 11:31:47;;;;;;;6.10;2.58;;;;;;;;;;4993150;28;20050;-77
2022/08/21 11:34:13;;;;;;;6.57;2.60;;;;;;;;;;4992571;28;20027;-76
2022/08/21 11:36:43;;;;;;;6.65;3.05;;;;;;;;;;4993225;28;20022;-77
2022/08/21 11:39:16;;;;;;;4.20;2.57;;;;;;;;;;4993172;28;20010;-78
2022/08/21 11:41:46;;;;;;;9.45;2.60;;;;;;;;;;4993390;28;20762;-76
2022/08/21 11:44:19;;;;;;;7.35;2.83;;;;;;;;;;4992908;28;20033;-77
2022/08/21 11:47:06;;;;;;;6.18;2.40;;;;;;;;;;4993575;28;20030;-77
2022/08/21 11:49:32;;;;;;;7.70;2.40;;;;;;;;;;4993856;28;20089;-77
2022/08/21 11:52:01;;;;;;;8.68;2.08;;;;;;;;;;4993271;28;20480;-79
2022/08/21 11:54:30;;;;;;;6.22;2.30;;;;;;;;;;4992826;28;20011;-78
2022/08/21 11:57:07;;;;;;;9.48;2.40;;;;;;;;;;4993123;28;20054;-76
2022/08/21 11:59:43;;;;;;;6.40;2.05;;;;;;;;;;4984647;28;20397;-76
2022/08/21 12:02:13;;;;;;;7.85;2.38;;;;;;;;;;4993295;28;20030;-76
2022/08/21 12:04:44;;;;;;;6.30;2.20;;;;;;;;;;4995490;28;20037;-77
2022/08/21 12:07:18;;;;;;;7.78;2.30;;;;;;;;;;4994939;28;20036;-76
2022/08/21 12:09:54;;;;;;;7.00;2.25;;;;;;;;;;4997558;28;20042;-77
2022/08/21 12:12:26;;;;;;;6.25;2.05;;;;;;;;;;4994726;28;20038;-78
2022/08/21 12:15:04;;;;;;;6.50;2.15;;;;;;;;;;4991981;28;20182;-78
2022/08/21 12:17:37;;;;;;;5.15;2.38;;;;;;;;;;4992505;28;20126;-77
2022/08/21 12:20:22;;;;;;;6.65;2.60;;;;;;;;;;4992955;28;20048;-76
2022/08/21 12:22:53;;;;;;;8.73;2.88;;;;;;;;;;4992509;28;20507;-77
2022/08/21 12:25:19;;;;;;;;;;;;;;;;;;4991553;28;20385;-77
2022/08/21 12:27:51;;;;;;;6.55;2.00;;;;;;;;;;4992178;28;20027;-77
2022/08/21 12:30:26;;;;;;;5.43;1.90;;;;;;;;;;4992349;28;20038;-77
2022/08/21 12:33:00;;;;;;;6.93;1.80;;;;;;;;;;4979515;28;20058;-78
2022/08/21 12:35:31;;;;;;;5.68;2.38;;;;;;;;;;4991293;28;20034;-77
2022/08/21 12:38:00;;;;;;;54.13;29.52;;;;;;;;;;4992463;28;20030;-76
2022/08/21 12:40:32;;;;;;;10.25;1.90;;;;;;;;;;4993527;28;20031;-78
2022/08/21 12:42:57;;;;;;;;;;;;;;;;;;4993867;28;20030;-77
2022/08/21 12:45:28;;;;;;;7.65;2.15;;;;;;;;;;4995373;28;19913;-77
2022/08/21 12:48:06;;;;;;;14.40;5.30;;;;;;;;;;4993398;28;20041;-75
2022/08/21 12:50:38;;;;;;;7.05;2.45;;;;;;;;;;5005302;28;20081;-76
2022/08/21 12:53:36;;;;;;;12.10;5.32;;;;;;;;;;5009124;28;20158;-77
2022/08/21 12:56:03;;;;;;;7.82;2.10;;;;;;;;;;4972566;28;20053;-78
2022/08/21 12:58:30;;;;;;;10.27;1.90;;;;;;;;;;5007376;28;20015;-76
2022/08/21 13:01:00;;;;;;;4.38;2.05;;;;;;;;;;5009774;28;20022;-76
2022/08/21 13:03:26;;;;;;;5.82;2.63;;;;;;;;;;5001581;28;20034;-76
2022/08/21 13:05:54;;;;;;;8.43;2.15;;;;;;;;;;4991930;28;20496;-75
2022/08/21 13:08:21;;;;;;;6.35;2.47;;;;;;;;;;4992010;28;20030;-75
2022/08/21 13:10:48;;;;;;;11.63;2.90;;;;;;;;;;4991884;28;20122;-76
2022/08/21 13:13:20;;;;;;;10.20;2.55;;;;;;;;;;4991907;28;20030;-76
2022/08/21 13:15:46;;;;;;;8.80;2.08;;;;;;;;;;4991329;28;20515;-73
2022/08/21 13:18:20;;;;;;;4.90;2.30;;;;;;;;;;4992022;28;20027;-74
2022/08/21 13:20:47;;;;;;;6.13;2.50;;;;;;;;;;4991870;28;20031;-75
2022/08/21 13:23:24;;;;;;;9.68;2.28;;;;;;;;;;4992017;28;20113;-74
2022/08/21 13:25:50;;;;;;;6.63;2.00;;;;;;;;;;4991730;28;20050;-76
2022/08/21 13:28:17;;;;;;;6.55;2.08;;;;;;;;;;4994926;28;20053;-74
2022/08/21 13:30:44;;;;;;;5.75;1.80;;;;;;;;;;4995761;28;20444;-76
2022/08/21 13:33:11;;;;;;;5.30;2.10;;;;;;;;;;4995545;28;20373;-76
2022/08/21 13:35:47;;;;;;;7.78;1.88;;;;;;;;;;4993771;28;20038;-75
2022/08/21 13:38:13;;;;;;;8.15;2.60;;;;;;;;;;4995455;28;20480;-74
2022/08/21 13:40:42;;;;;;;7.03;2.20;;;;;;;;;;4993806;28;20463;-76
2022/08/21 13:43:16;;;;;;;7.20;2.20;;;;;;;;;;4994073;28;20089;-76
2022/08/21 13:45:44;;;;;;;8.00;2.47;;;;;;;;;;4995091;28;20037;-76
2022/08/21 13:48:10;;;;;;;4.00;1.90;;;;;;;;;;4995278;28;20407;-77
2022/08/21 13:50:38;;;;;;;5.38;1.90;;;;;;;;;;4994163;28;20396;-77
2022/08/21 13:53:06;;;;;;;5.18;1.75;;;;;;;;;;4994918;28;20094;-75
2022/08/21 13:55:37;;;;;;;4.88;2.00;;;;;;;;;;4994861;28;20105;-75
2022/08/21 13:58:03;;;;;;;;;;;;;;;;;;4994148;28;20053;-77
2022/08/21 14:00:31;;;;;;;8.23;1.58;;;;;;;;;;4993517;28;20407;-77
2022/08/21 14:03:02;;;;;;;81.00;46.05;;;;;;;;;;4995110;28;20050;-76
2022/08/21 14:05:33;;;;;;;14.65;3.25;;;;;;;;;;4993501;28;20567;-76
2022/08/21 14:08:02;;;;;;;7.27;2.63;;;;;;;;;;4994778;28;20416;-76
2022/08/21 14:10:30;;;;;;;3.17;1.67;;;;;;;;;;4994789;28;20022;-74
2022/08/21 14:12:59;;;;;;;8.27;2.28;;;;;;;;;;4993362;28;20033;-74
2022/08/21 14:15:28;;;;;;;8.68;2.50;;;;;;;;;;4993110;28;20077;-74
2022/08/21 14:17:56;;;;;;;4.85;1.73;;;;;;;;;;4980159;28;20030;-75
2022/08/21 14:20:32;;;;;;;3.47;1.67;;;;;;;;;;4994716;28;20073;-76
2022/08/21 14:22:59;;;;;;;6.75;2.30;;;;;;;;;;4980911;28;20022;-74
2022/08/21 14:25:25;;;;;;;6.25;1.90;;;;;;;;;;4994369;28;20480;-74
2022/08/21 14:28:14;;;;;;;4.22;1.80;;;;;;;;;;4993929;28;20072;-74